Startpagina
METAR-TAF:

METAR-TAF

Vliegvelden :

Kashgar, China

breedte: 39-28N, lengte: 075-59E, hoogte: 1291 m

Actueel weer

Dit bericht is 1 uur en het 2 minuten geleden gemaakt, om 01:00 UTC
Wind 4 kt uit het westen, variërend tussen het westzuidwesten en het noordwesten
Temperatuur 4°C
Vochtigheid 25%
Druk 1021 hPa
Zicht 10 km of meer
geen wolken onder 1500 m en geen cumulonimbus

METAR: ZWSH 200100Z 28002MPS 250V320 CAVOK 04/M14 Q1021 NOSIG

Tijdstip: 10:02 (02:02 UTC)

Verwachting

Dit bericht is 4 uur en het 59 minuten geleden gemaakt, om 21:03 UTC
Verwachting geldig van 20 om 00 UTC tot 20 om 24 UTC
Wind 8 kt uit het noordnoordwesten
Zicht 10 km of meer
Weinig wolken op 4000 ft
Wijzigt naar
van 20 om 05 UTC tot 20 om 06 UTC
Wind 8 kt uit het oostzuidoosten

TAF: ZWSH 192103Z 2000/2024 33004MPS 9999 FEW040 TX19/2009Z TN04/2000Z BECMG 2005/2006 12004MPS

Waarnemingen en weersverwachtingen van meer dan 4000 vliegvelden (METAR en TAF).

De beschikbare stations zijn de gele en rode punten op de kaart.

Ga met uw muis naar het station om de naam te zien.

Klik dan om waarnemingen en weersverwachtingen te zien.

kaart wijzigen: klik op de groene knoppen met een zwart kruis om in te zoomen, op de groene knop met een streepje om uit te zoomen of op de groene pijlen voor aangrenzende kaarten.


METAR-TAF: